createdAt,value
2019-01-04T00:00:03.397Z,7.2
2019-01-04T00:01:03.345Z,6.1
2019-01-04T00:02:03.159Z,6.1
2019-01-04T00:03:04.329Z,6.1
2019-01-04T00:04:03.033Z,7.2
2019-01-04T00:05:03.056Z,7.2
2019-01-04T00:06:03.712Z,7.2
2019-01-04T00:07:03.906Z,7.2
2019-01-04T00:08:03.941Z,7.2
2019-01-04T00:09:03.816Z,7.2
2019-01-04T00:10:03.292Z,7.2
2019-01-04T00:11:03.358Z,7.2
2019-01-04T00:12:03.669Z,7.2
2019-01-04T00:13:03.501Z,8.6
2019-01-04T00:14:03.961Z,8.6
2019-01-04T00:15:03.751Z,11.2
2019-01-04T00:16:03.567Z,11.2
2019-01-04T00:17:02.999Z,8.6
2019-01-04T00:18:03.037Z,9.7
2019-01-04T00:19:03.831Z,9.7
2019-01-04T00:20:03.791Z,9.7
2019-01-04T00:22:03.317Z,11.2
2019-01-04T00:23:03.264Z,9.7
2019-01-04T00:24:03.284Z,11.2
2019-01-04T00:25:03.203Z,8.6
2019-01-04T00:26:03.761Z,9.7
2019-01-04T00:27:03.522Z,8.6
2019-01-04T00:28:03.267Z,7.2
2019-01-04T00:29:03.252Z,9.7
2019-01-04T00:30:03.732Z,9.7
2019-01-04T00:31:03.435Z,9.7
2019-01-04T00:32:03.129Z,9.7
2019-01-04T00:33:03.279Z,8.6
2019-01-04T00:34:03.768Z,8.6
2019-01-04T00:35:03.438Z,9.7
2019-01-04T00:36:03.133Z,9.7
2019-01-04T00:37:03.692Z,8.6
2019-01-04T00:38:03.672Z,8.6
2019-01-04T00:39:05.178Z,8.6
2019-01-04T00:40:03.871Z,8.6
2019-01-04T00:41:03.243Z,9.7
2019-01-04T00:42:03.127Z,9.7
2019-01-04T00:43:03.942Z,7.2
2019-01-04T00:44:03.288Z,7.2
2019-01-04T00:45:03.457Z,7.2
2019-01-04T00:46:03.796Z,7.2
2019-01-04T00:47:03.334Z,8.6
2019-01-04T00:48:03.240Z,9.7
2019-01-04T00:49:03.708Z,9.7
2019-01-04T00:50:04.180Z,9.7
2019-01-04T00:51:03.618Z,9.7
2019-01-04T00:52:03.901Z,6.1
2019-01-04T00:53:03.471Z,8.6
2019-01-04T00:54:03.846Z,8.6
2019-01-04T00:55:03.314Z,7.2
2019-01-04T00:56:03.609Z,9.7
2019-01-04T00:57:04.033Z,9.7
2019-01-04T00:58:03.712Z,9.7
2019-01-04T00:59:03.211Z,8.6
2019-01-04T01:00:03.875Z,8.6
2019-01-04T01:01:03.608Z,8.6
2019-01-04T01:02:03.271Z,8.6
2019-01-04T01:03:03.643Z,8.6
2019-01-04T01:05:03.578Z,8.6
2019-01-04T01:06:02.742Z,8.6
2019-01-04T01:07:02.150Z,8.6
2019-01-04T01:08:03.707Z,8.6
2019-01-04T01:09:03.166Z,8.6
2019-01-04T01:10:03.494Z,8.6
2019-01-04T01:11:03.456Z,7.2
2019-01-04T01:12:03.757Z,7.2
2019-01-04T01:13:03.134Z,7.2
2019-01-04T01:14:02.993Z,7.2
2019-01-04T01:15:03.165Z,9.7
2019-01-04T01:16:03.286Z,7.2
2019-01-04T01:17:03.640Z,7.2
2019-01-04T01:18:04.057Z,7.2
2019-01-04T01:19:03.952Z,7.2
2019-01-04T01:20:04.056Z,7.2
2019-01-04T01:21:03.153Z,9.7
2019-01-04T01:22:03.425Z,9.7
2019-01-04T01:23:02.936Z,8.6
2019-01-04T01:24:13.125Z,7.2
2019-01-04T01:25:03.287Z,7.2
2019-01-04T01:26:03.280Z,11.2
2019-01-04T01:27:03.912Z,8.6
2019-01-04T01:28:03.808Z,8.6
2019-01-04T01:29:03.361Z,9.7
2019-01-04T01:30:03.389Z,9.7
2019-01-04T01:31:04.880Z,9.7
2019-01-04T01:33:03.710Z,9.7
2019-01-04T01:34:03.184Z,9.7
2019-01-04T01:35:02.912Z,9.7
2019-01-04T01:36:03.369Z,8.6
2019-01-04T01:37:01.917Z,8.6
2019-01-04T01:38:03.259Z,8.6
2019-01-04T01:39:03.621Z,8.6
2019-01-04T01:40:03.900Z,8.6
2019-01-04T01:41:03.081Z,8.6
2019-01-04T01:42:03.053Z,8.6
2019-01-04T01:43:02.886Z,9.7
2019-01-04T01:44:03.117Z,7.2
2019-01-04T01:45:03.542Z,7.2
2019-01-04T01:46:03.117Z,7.2
2019-01-04T01:47:03.801Z,6.1
2019-01-04T01:48:03.187Z,6.1
2019-01-04T01:49:03.842Z,5
2019-01-04T01:50:03.827Z,5
2019-01-04T01:51:03.746Z,5
2019-01-04T01:52:03.557Z,5
2019-01-04T01:53:02.876Z,6.1
2019-01-04T01:54:02.951Z,6.1
2019-01-04T01:55:02.962Z,6.1
2019-01-04T01:56:03.767Z,6.1
2019-01-04T01:57:03.428Z,6.1
2019-01-04T01:58:02.595Z,8.6
2019-01-04T01:59:04.537Z,8.6
2019-01-04T02:00:03.865Z,9.7
2019-01-04T02:01:03.922Z,8.6
2019-01-04T02:02:03.654Z,9.7
2019-01-04T02:03:03.101Z,8.6
2019-01-04T02:04:03.262Z,9.7
2019-01-04T02:05:03.474Z,9.7
2019-01-04T02:06:03.205Z,7.2
2019-01-04T02:07:03.844Z,8.6
2019-01-04T02:08:03.362Z,9.7
2019-01-04T02:09:07.931Z,9.7
2019-01-04T02:10:03.777Z,9.7
2019-01-04T02:11:03.355Z,9.7
2019-01-04T02:12:02.797Z,9.7
2019-01-04T02:13:03.680Z,9.7
2019-01-04T02:14:04.408Z,9.7
2019-01-04T02:15:03.849Z,8.6
2019-01-04T02:16:03.657Z,8.6
2019-01-04T02:17:03.659Z,8.6
2019-01-04T02:18:03.199Z,8.6
2019-01-04T02:19:03.594Z,7.2
2019-01-04T02:20:03.103Z,8.6
2019-01-04T02:21:02.991Z,8.6
2019-01-04T02:22:03.406Z,9.7
2019-01-04T02:23:03.596Z,8.6
2019-01-04T02:24:02.218Z,6.1
2019-01-04T02:25:04.035Z,6.1
2019-01-04T02:26:03.732Z,8.6
2019-01-04T02:27:03.222Z,8.6
2019-01-04T02:28:03.850Z,7.2
2019-01-04T02:29:03.895Z,8.6
2019-01-04T02:30:03.419Z,6.1
2019-01-04T02:31:03.736Z,7.2
2019-01-04T02:32:03.651Z,7.2
2019-01-04T02:33:03.490Z,6.1
2019-01-04T02:34:03.111Z,7.2
2019-01-04T02:35:03.435Z,6.1
2019-01-04T02:36:03.831Z,8.6
2019-01-04T02:37:03.803Z,8.6
2019-01-04T02:38:03.838Z,8.6
2019-01-04T02:39:03.059Z,8.6
2019-01-04T02:40:03.648Z,8.6
2019-01-04T02:41:03.177Z,8.6
2019-01-04T02:43:03.638Z,9.7
2019-01-04T02:44:03.581Z,8.6
2019-01-04T02:45:05.773Z,8.6
2019-01-04T02:46:02.330Z,8.6
2019-01-04T02:47:02.831Z,8.6
2019-01-04T02:48:03.135Z,9.7
2019-01-04T02:49:03.221Z,8.6
2019-01-04T02:50:03.347Z,9.7
2019-01-04T02:51:03.268Z,9.7
2019-01-04T02:52:04.120Z,9.7
2019-01-04T02:53:03.522Z,8.6
2019-01-04T02:54:03.741Z,8.6
2019-01-04T02:55:03.427Z,7.2
2019-01-04T02:56:04.033Z,7.2
2019-01-04T02:57:03.279Z,8.6
2019-01-04T02:58:03.566Z,8.6
2019-01-04T02:59:03.752Z,11.2
2019-01-04T03:00:03.704Z,11.2
2019-01-04T03:01:03.300Z,9.7
2019-01-04T03:02:03.315Z,9.7
2019-01-04T03:03:04.001Z,9.7
2019-01-04T03:04:03.234Z,9.7
2019-01-04T03:06:04.140Z,9.7
2019-01-04T03:07:04.609Z,9.7
2019-01-04T03:08:03.957Z,9.7
2019-01-04T03:09:02.603Z,8.6
2019-01-04T03:11:04.559Z,8.6
2019-01-04T03:12:05.109Z,8.6
2019-01-04T03:13:03.948Z,9.7
2019-01-04T03:14:03.595Z,8.6
2019-01-04T03:15:03.679Z,9.7
2019-01-04T03:16:03.762Z,9.7
2019-01-04T03:17:03.084Z,8.6
2019-01-04T03:18:04.130Z,8.6
2019-01-04T03:19:04.059Z,8.6
2019-01-04T03:20:03.410Z,8.6
2019-01-04T03:21:03.204Z,8.6
2019-01-04T03:22:03.298Z,7.2
2019-01-04T03:23:03.621Z,8.6
2019-01-04T03:24:03.811Z,7.2
2019-01-04T03:25:03.510Z,7.2
2019-01-04T03:26:03.389Z,7.2
2019-01-04T03:27:03.834Z,8.6
2019-01-04T03:28:03.323Z,7.2
2019-01-04T03:29:03.466Z,7.2
2019-01-04T03:30:03.387Z,8.6
2019-01-04T03:31:03.279Z,8.6
2019-01-04T03:32:03.872Z,8.6
2019-01-04T03:33:03.621Z,7.2
2019-01-04T03:34:03.059Z,7.2
2019-01-04T03:35:04.296Z,7.2
2019-01-04T03:36:03.200Z,7.2
2019-01-04T03:37:02.977Z,8.6
2019-01-04T03:38:03.885Z,5
2019-01-04T03:39:03.707Z,5
2019-01-04T03:40:03.110Z,7.2
2019-01-04T03:41:03.633Z,7.2
2019-01-04T03:42:03.776Z,8.6
2019-01-04T03:43:03.736Z,8.6
2019-01-04T03:44:03.010Z,8.6
2019-01-04T03:45:04.156Z,7.2
2019-01-04T03:46:03.371Z,7.2
2019-01-04T03:47:03.533Z,7.2
2019-01-04T03:48:03.200Z,8.6
2019-01-04T03:49:03.302Z,7.2
2019-01-04T03:50:03.331Z,7.2
2019-01-04T03:51:03.113Z,8.6
2019-01-04T03:52:05.811Z,8.6
2019-01-04T03:53:04.249Z,8.6
2019-01-04T03:54:03.716Z,7.2
2019-01-04T03:55:03.305Z,7.2
2019-01-04T03:56:03.079Z,8.6
2019-01-04T03:57:03.164Z,8.6
2019-01-04T03:58:03.144Z,8.6
2019-01-04T03:59:03.591Z,8.6
2019-01-04T04:01:03.922Z,8.6
2019-01-04T04:02:03.455Z,8.6
2019-01-04T04:03:03.243Z,8.6
2019-01-04T04:04:03.148Z,7.2
2019-01-04T04:05:04.002Z,7.2
2019-01-04T04:06:03.073Z,6.1
2019-01-04T04:07:03.175Z,6.1
2019-01-04T04:08:03.318Z,7.2
2019-01-04T04:09:03.884Z,7.2
2019-01-04T04:10:03.687Z,7.2
2019-01-04T04:11:03.672Z,7.2
2019-01-04T04:12:03.697Z,6.1
2019-01-04T04:13:03.187Z,6.1
2019-01-04T04:14:03.476Z,8.6
2019-01-04T04:15:03.396Z,7.2
2019-01-04T04:16:03.402Z,6.1
2019-01-04T04:17:04.262Z,6.1
2019-01-04T04:18:03.739Z,7.2
2019-01-04T04:19:03.275Z,7.2
2019-01-04T04:20:04.041Z,6.1
2019-01-04T04:21:04.285Z,6.1
2019-01-04T04:22:04.942Z,6.1
2019-01-04T04:23:03.436Z,6.1
2019-01-04T04:24:03.731Z,7.2
2019-01-04T04:25:03.498Z,7.2
2019-01-04T04:27:03.071Z,7.2
2019-01-04T04:28:03.313Z,7.2
2019-01-04T04:29:03.079Z,8.6
2019-01-04T04:30:03.738Z,8.6
2019-01-04T04:31:03.689Z,6.1
2019-01-04T04:33:03.944Z,7.2
2019-01-04T04:34:03.962Z,7.2
2019-01-04T04:35:03.479Z,7.2
2019-01-04T04:36:03.481Z,8.6
2019-01-04T04:37:03.811Z,8.6
2019-01-04T04:38:03.692Z,9.7
2019-01-04T04:39:03.539Z,8.6
2019-01-04T04:40:03.547Z,8.6
2019-01-04T04:41:04.035Z,8.6
2019-01-04T04:42:03.034Z,7.2
2019-01-04T04:43:03.069Z,6.1
2019-01-04T04:44:03.363Z,6.1
2019-01-04T04:45:03.559Z,6.1
2019-01-04T04:46:03.071Z,6.1
2019-01-04T04:47:03.278Z,7.2
2019-01-04T04:48:03.817Z,7.2
2019-01-04T04:49:03.340Z,7.2
2019-01-04T04:50:03.066Z,7.2
2019-01-04T04:51:03.165Z,8.6
2019-01-04T04:52:02.953Z,8.6
2019-01-04T04:53:02.987Z,7.2
2019-01-04T04:54:03.885Z,7.2
2019-01-04T04:55:03.971Z,6.1
2019-01-04T04:56:03.589Z,7.2
2019-01-04T04:57:03.109Z,7.2
2019-01-04T04:58:03.253Z,7.2
2019-01-04T04:59:02.966Z,7.2
2019-01-04T05:00:03.798Z,7.2
2019-01-04T05:01:03.796Z,7.2
2019-01-04T05:02:03.438Z,7.2
2019-01-04T05:03:03.014Z,7.2
2019-01-04T05:04:03.998Z,7.2
2019-01-04T05:05:04.002Z,7.2
2019-01-04T05:06:03.723Z,7.2
2019-01-04T05:07:03.873Z,7.2
2019-01-04T05:08:03.632Z,6.1
2019-01-04T05:09:03.051Z,6.1
2019-01-04T05:10:03.596Z,6.1
2019-01-04T05:11:03.556Z,6.1
2019-01-04T05:12:03.481Z,7.2
2019-01-04T05:13:03.566Z,6.1
2019-01-04T05:14:04.262Z,6.1
2019-01-04T05:15:06.541Z,6.1
2019-01-04T05:17:03.910Z,7.2
2019-01-04T05:18:03.620Z,6.1
2019-01-04T05:19:03.178Z,6.1
2019-01-04T05:20:03.226Z,6.1
2019-01-04T05:21:02.994Z,5
2019-01-04T05:22:03.434Z,5
2019-01-04T05:23:03.245Z,5
2019-01-04T05:25:04.031Z,5
2019-01-04T05:26:03.140Z,6.1
2019-01-04T05:27:03.634Z,5
2019-01-04T05:28:03.403Z,5
2019-01-04T05:29:03.804Z,6.1
2019-01-04T05:30:04.021Z,6.1
2019-01-04T05:31:03.746Z,6.1
2019-01-04T05:32:03.953Z,5
2019-01-04T05:33:03.676Z,5
2019-01-04T05:34:03.808Z,7.2
2019-01-04T05:35:03.702Z,7.2
2019-01-04T05:36:02.310Z,7.2
2019-01-04T05:37:03.369Z,6.1
2019-01-04T05:38:02.917Z,7.2
2019-01-04T05:39:03.624Z,6.1
2019-01-04T05:40:03.215Z,6.1
2019-01-04T05:41:03.694Z,6.1
2019-01-04T05:42:03.598Z,6.1
2019-01-04T05:43:03.856Z,6.1
2019-01-04T05:44:02.918Z,5
2019-01-04T05:45:03.205Z,5
2019-01-04T05:46:03.716Z,5
2019-01-04T05:47:03.198Z,5
2019-01-04T05:48:03.482Z,5
2019-01-04T05:49:03.468Z,5
2019-01-04T05:50:03.178Z,5
2019-01-04T05:51:03.490Z,6.1
2019-01-04T05:52:03.087Z,6.1
2019-01-04T05:53:03.464Z,5
2019-01-04T05:54:03.376Z,5
2019-01-04T05:55:03.775Z,5
2019-01-04T05:56:04.355Z,5
2019-01-04T05:57:03.329Z,5
2019-01-04T05:59:03.354Z,3.6
2019-01-04T06:00:03.620Z,3.6
2019-01-04T06:01:03.232Z,3.6
2019-01-04T06:02:03.358Z,3.6
2019-01-04T06:03:03.066Z,2.5
2019-01-04T06:04:03.504Z,2.5
2019-01-04T06:05:03.519Z,2.5
2019-01-04T06:06:03.353Z,2.5
2019-01-04T06:07:04.012Z,3.6
2019-01-04T06:08:03.602Z,3.6
2019-01-04T06:09:05.134Z,3.6
2019-01-04T06:10:03.317Z,2.5
2019-01-04T06:11:03.705Z,2.5
2019-01-04T06:12:03.192Z,3.6
2019-01-04T06:13:03.200Z,2.5
2019-01-04T06:14:03.247Z,2.5
2019-01-04T06:15:04.221Z,2.5
2019-01-04T06:16:03.766Z,2.5
2019-01-04T06:17:03.588Z,2.5
2019-01-04T06:18:03.092Z,3.6
2019-01-04T06:19:04.791Z,3.6
2019-01-04T06:20:04.107Z,3.6
2019-01-04T06:21:03.409Z,3.6
2019-01-04T06:22:03.007Z,3.6
2019-01-04T06:23:03.859Z,2.5
2019-01-04T06:24:03.467Z,3.6
2019-01-04T06:25:03.369Z,3.6
2019-01-04T06:26:03.833Z,3.6
2019-01-04T06:27:03.959Z,3.6
2019-01-04T06:28:03.165Z,3.6
2019-01-04T06:29:03.437Z,5
2019-01-04T06:30:03.076Z,5
2019-01-04T06:31:03.929Z,5
2019-01-04T06:32:04.074Z,5
2019-01-04T06:33:03.565Z,5
2019-01-04T06:34:03.370Z,6.1
2019-01-04T06:35:06.809Z,6.1
2019-01-04T06:36:03.356Z,6.1
2019-01-04T06:37:02.585Z,6.1
2019-01-04T06:38:03.226Z,6.1
2019-01-04T06:39:04.634Z,6.1
2019-01-04T06:40:03.366Z,5
2019-01-04T06:41:04.019Z,6.1
2019-01-04T06:42:03.087Z,6.1
2019-01-04T06:43:03.826Z,6.1
2019-01-04T06:44:03.369Z,6.1
2019-01-04T06:45:03.076Z,8.6
2019-01-04T06:46:03.198Z,7.2
2019-01-04T06:47:03.102Z,7.2
2019-01-04T06:48:03.804Z,8.6
2019-01-04T06:49:03.466Z,8.6
2019-01-04T06:50:03.325Z,8.6
2019-01-04T06:51:04.903Z,8.6
2019-01-04T06:52:03.008Z,6.1
2019-01-04T06:53:03.887Z,6.1
2019-01-04T06:54:03.936Z,6.1
2019-01-04T06:55:03.860Z,7.2
2019-01-04T06:56:03.254Z,7.2
2019-01-04T06:57:03.102Z,7.2
2019-01-04T06:58:04.281Z,7.2
2019-01-04T06:59:03.511Z,8.6
2019-01-04T07:00:03.022Z,7.2
2019-01-04T07:01:03.280Z,7.2
2019-01-04T07:02:03.780Z,7.2
2019-01-04T07:03:03.031Z,7.2
2019-01-04T07:04:03.149Z,7.2
2019-01-04T07:05:03.447Z,7.2
2019-01-04T07:06:02.825Z,7.2
2019-01-04T07:07:03.650Z,7.2
2019-01-04T07:08:03.671Z,7.2
2019-01-04T07:09:03.221Z,7.2
2019-01-04T07:10:03.252Z,6.1
2019-01-04T07:11:04.001Z,6.1
2019-01-04T07:12:03.806Z,8.6
2019-01-04T07:13:03.811Z,7.2
2019-01-04T07:14:03.565Z,7.2
2019-01-04T07:15:03.431Z,6.1
2019-01-04T07:16:03.498Z,7.2
2019-01-04T07:17:03.114Z,7.2
2019-01-04T07:18:03.177Z,7.2
2019-01-04T07:19:03.338Z,6.1
2019-01-04T07:20:03.489Z,7.2
2019-01-04T07:21:03.321Z,7.2
2019-01-04T07:22:03.218Z,6.1
2019-01-04T07:23:03.212Z,6.1
2019-01-04T07:24:05.676Z,6.1
2019-01-04T07:25:03.429Z,7.2
2019-01-04T07:26:03.900Z,7.2
2019-01-04T07:27:03.852Z,7.2
2019-01-04T07:28:03.292Z,7.2
2019-01-04T07:29:03.864Z,6.1
2019-01-04T07:30:03.517Z,6.1
2019-01-04T07:31:03.138Z,5
2019-01-04T07:32:04.664Z,7.2
2019-01-04T07:33:03.168Z,7.2
2019-01-04T07:34:03.759Z,6.1
2019-01-04T07:35:03.758Z,6.1
2019-01-04T07:36:03.771Z,6.1
2019-01-04T07:37:03.726Z,7.2
2019-01-04T07:38:03.342Z,7.2
2019-01-04T07:39:03.728Z,6.1
2019-01-04T07:40:03.434Z,6.1
2019-01-04T07:41:03.472Z,7.2
2019-01-04T07:42:03.922Z,7.2
2019-01-04T07:43:04.191Z,7.2
2019-01-04T07:44:03.713Z,6.1
2019-01-04T07:45:03.025Z,7.2
2019-01-04T07:46:03.708Z,7.2
2019-01-04T07:47:03.241Z,7.2
2019-01-04T07:48:03.844Z,5
2019-01-04T07:49:03.650Z,6.1
2019-01-04T07:50:03.194Z,5
2019-01-04T07:51:02.024Z,6.1
2019-01-04T07:52:03.843Z,6.1
2019-01-04T07:53:03.306Z,6.1
2019-01-04T07:54:03.961Z,6.1
2019-01-04T07:55:03.433Z,6.1
2019-01-04T07:56:03.892Z,5
2019-01-04T07:57:03.002Z,5
2019-01-04T07:58:03.773Z,6.1
2019-01-04T07:59:03.851Z,6.1
2019-01-04T08:00:03.483Z,5
2019-01-04T08:01:03.492Z,5
2019-01-04T08:02:03.943Z,5
2019-01-04T08:03:03.569Z,3.6
2019-01-04T08:04:02.993Z,5
2019-01-04T08:05:03.574Z,6.1
2019-01-04T08:06:03.521Z,6.1
2019-01-04T08:07:03.292Z,6.1
2019-01-04T08:08:03.248Z,6.1
2019-01-04T08:09:03.904Z,5
2019-01-04T08:10:04.504Z,5
2019-01-04T08:11:03.720Z,5
2019-01-04T08:12:03.843Z,7.2
2019-01-04T08:13:01.815Z,7.2
2019-01-04T08:14:03.251Z,7.2
2019-01-04T08:15:03.774Z,7.2
2019-01-04T08:16:04.018Z,7.2
2019-01-04T08:17:03.453Z,7.2
2019-01-04T08:18:03.504Z,6.1
2019-01-04T08:19:03.338Z,8.6
2019-01-04T08:20:03.965Z,6.1
2019-01-04T08:21:04.159Z,6.1
2019-01-04T08:22:03.691Z,7.2
2019-01-04T08:23:03.458Z,7.2
2019-01-04T08:24:03.229Z,6.1
2019-01-04T08:25:03.394Z,6.1
2019-01-04T08:26:03.732Z,7.2
2019-01-04T08:27:06.170Z,7.2
2019-01-04T08:28:03.787Z,9.7
2019-01-04T08:29:03.511Z,7.2
2019-01-04T08:30:03.468Z,7.2
2019-01-04T08:31:03.692Z,9.7
2019-01-04T08:32:03.863Z,7.2
2019-01-04T08:33:03.486Z,7.2
2019-01-04T08:34:03.678Z,7.2
2019-01-04T08:35:03.828Z,7.2
2019-01-04T08:36:03.571Z,7.2
2019-01-04T08:37:03.917Z,8.6
2019-01-04T08:38:03.450Z,8.6
2019-01-04T08:39:03.432Z,7.2
2019-01-04T08:40:03.404Z,8.6
2019-01-04T08:41:03.618Z,7.2
2019-01-04T08:42:03.211Z,7.2
2019-01-04T08:43:03.109Z,8.6
2019-01-04T08:44:03.797Z,6.1
2019-01-04T08:45:04.018Z,6.1
2019-01-04T08:46:03.600Z,6.1
2019-01-04T08:48:03.569Z,8.6
2019-01-04T08:49:02.878Z,6.1
2019-01-04T08:50:03.848Z,7.2
2019-01-04T08:51:02.350Z,7.2
2019-01-04T08:52:03.790Z,7.2
2019-01-04T08:53:02.126Z,7.2
2019-01-04T08:54:03.230Z,8.6
2019-01-04T08:55:03.228Z,8.6
2019-01-04T08:56:03.565Z,7.2
2019-01-04T08:57:03.202Z,7.2
2019-01-04T08:58:03.305Z,7.2
2019-01-04T08:59:03.941Z,7.2
2019-01-04T09:00:04.864Z,7.2
2019-01-04T09:01:03.298Z,7.2
2019-01-04T09:02:03.600Z,8.6
2019-01-04T09:03:03.219Z,8.6
2019-01-04T09:04:03.350Z,8.6
2019-01-04T09:05:03.008Z,8.6
2019-01-04T09:06:02.980Z,8.6
2019-01-04T09:07:03.387Z,8.6
2019-01-04T09:08:03.873Z,7.2
2019-01-04T09:09:03.426Z,8.6
2019-01-04T09:10:03.807Z,7.2
2019-01-04T09:11:02.154Z,7.2
2019-01-04T09:12:03.888Z,6.1
2019-01-04T09:13:03.034Z,6.1
2019-01-04T09:14:03.745Z,6.1
2019-01-04T09:15:03.547Z,6.1
2019-01-04T09:16:03.125Z,5
2019-01-04T09:17:02.997Z,6.1
2019-01-04T09:18:03.099Z,6.1
2019-01-04T09:19:03.147Z,5
2019-01-04T09:20:03.590Z,6.1
2019-01-04T09:21:03.481Z,6.1
2019-01-04T09:22:05.176Z,7.2
2019-01-04T09:23:03.294Z,7.2
2019-01-04T09:24:03.335Z,5
2019-01-04T09:25:03.078Z,5
2019-01-04T09:26:03.455Z,8.6
2019-01-04T09:27:03.196Z,8.6
2019-01-04T09:28:03.242Z,7.2
2019-01-04T09:29:04.063Z,7.2
2019-01-04T09:30:04.598Z,5
2019-01-04T09:31:03.238Z,7.2
2019-01-04T09:32:03.599Z,7.2
2019-01-04T09:33:03.895Z,6.1
2019-01-04T09:34:03.337Z,6.1
2019-01-04T09:35:02.886Z,5
2019-01-04T09:36:03.165Z,6.1
2019-01-04T09:37:03.756Z,6.1
2019-01-04T09:38:03.227Z,3.6
2019-01-04T09:39:03.798Z,5
2019-01-04T09:40:03.598Z,6.1
2019-01-04T09:41:03.231Z,5
2019-01-04T09:42:03.415Z,5
2019-01-04T09:43:02.213Z,6.1
2019-01-04T09:44:03.835Z,5
2019-01-04T09:45:03.585Z,5
2019-01-04T09:46:03.251Z,3.6
2019-01-04T09:47:03.522Z,5
2019-01-04T09:48:03.154Z,5
2019-01-04T09:49:03.359Z,5
2019-01-04T09:50:04.071Z,6.1
2019-01-04T09:51:03.582Z,6.1
2019-01-04T09:52:03.783Z,5
2019-01-04T09:53:03.588Z,5
2019-01-04T09:54:03.958Z,5
2019-01-04T09:55:04.055Z,5
2019-01-04T09:56:03.017Z,5
2019-01-04T09:57:03.698Z,5
2019-01-04T09:58:03.568Z,6.1
2019-01-04T09:59:03.111Z,8.6
2019-01-04T10:00:03.439Z,7.2
2019-01-04T10:01:04.294Z,7.2
2019-01-04T10:02:03.036Z,7.2
2019-01-04T10:03:03.881Z,6.1
2019-01-04T10:04:03.331Z,6.1
2019-01-04T10:06:03.612Z,7.2
2019-01-04T10:07:03.407Z,7.2
2019-01-04T10:08:03.417Z,5
2019-01-04T10:09:03.813Z,5
2019-01-04T10:10:03.202Z,3.6
2019-01-04T10:11:03.426Z,6.1
2019-01-04T10:12:03.467Z,5
2019-01-04T10:13:05.718Z,5
2019-01-04T10:14:03.663Z,3.6
2019-01-04T10:15:03.752Z,5
2019-01-04T10:16:03.140Z,5
2019-01-04T10:17:03.557Z,6.1
2019-01-04T10:18:03.716Z,6.1
2019-01-04T10:20:03.703Z,6.1
2019-01-04T10:21:03.972Z,6.1
2019-01-04T10:22:02.158Z,6.1
2019-01-04T10:23:03.546Z,6.1
2019-01-04T10:24:04.013Z,7.2
2019-01-04T10:25:03.066Z,7.2
2019-01-04T10:26:02.888Z,7.2
2019-01-04T10:27:03.598Z,6.1
2019-01-04T10:28:03.682Z,6.1
2019-01-04T10:29:03.809Z,7.2
2019-01-04T10:30:04.391Z,6.1
2019-01-04T10:31:04.525Z,8.6
2019-01-04T10:32:03.869Z,8.6
2019-01-04T10:33:03.011Z,8.6
2019-01-04T10:34:03.497Z,6.1
2019-01-04T10:35:03.157Z,7.2
2019-01-04T10:36:03.308Z,8.6
2019-01-04T10:37:04.006Z,8.6
2019-01-04T10:38:03.716Z,5
2019-01-04T10:39:03.854Z,5
2019-01-04T10:40:03.660Z,7.2
2019-01-04T10:41:03.413Z,7.2
2019-01-04T10:42:03.532Z,7.2
2019-01-04T10:43:03.693Z,7.2
2019-01-04T10:44:03.865Z,6.1
2019-01-04T10:46:03.023Z,6.1
2019-01-04T10:47:03.219Z,6.1
2019-01-04T10:48:02.141Z,7.2
2019-01-04T10:49:03.394Z,7.2
2019-01-04T10:50:03.781Z,5
2019-01-04T10:51:04.048Z,5
2019-01-04T10:52:03.899Z,6.1
2019-01-04T10:53:03.577Z,5
2019-01-04T10:54:03.654Z,7.2
2019-01-04T10:55:03.378Z,7.2
2019-01-04T10:56:03.408Z,8.6
2019-01-04T10:57:03.134Z,8.6
2019-01-04T10:58:03.401Z,9.7
2019-01-04T10:59:04.319Z,9.7
2019-01-04T11:00:03.559Z,6.1
2019-01-04T11:01:04.081Z,6.1
2019-01-04T11:02:03.671Z,7.2
2019-01-04T11:03:03.319Z,7.2
2019-01-04T11:04:03.939Z,7.2
2019-01-04T11:05:04.121Z,7.2
2019-01-04T11:06:03.054Z,7.2
2019-01-04T11:08:03.637Z,6.1
2019-01-04T11:09:03.951Z,6.1
2019-01-04T11:11:04.071Z,8.6
2019-01-04T11:12:03.758Z,7.2
2019-01-04T11:13:02.369Z,6.1
2019-01-04T11:14:03.678Z,6.1
2019-01-04T11:15:03.404Z,8.6
2019-01-04T11:16:02.944Z,8.6
2019-01-04T11:17:03.054Z,6.1
2019-01-04T11:18:10.378Z,6.1
2019-01-04T11:19:03.962Z,8.6
2019-01-04T11:20:05.258Z,7.2
2019-01-04T11:22:03.334Z,7.2
2019-01-04T11:23:03.748Z,8.6
2019-01-04T11:24:04.004Z,7.2
2019-01-04T11:25:03.284Z,8.6
2019-01-04T11:26:03.424Z,8.6
2019-01-04T11:27:03.418Z,7.2
2019-01-04T11:28:03.669Z,8.6
2019-01-04T11:29:07.221Z,8.6
2019-01-04T11:30:05.861Z,7.2
2019-01-04T11:31:03.385Z,5
2019-01-04T11:32:03.761Z,7.2
2019-01-04T11:33:03.904Z,7.2
2019-01-04T11:34:02.996Z,7.2
2019-01-04T11:35:03.591Z,7.2
2019-01-04T11:38:03.628Z,8.6
2019-01-04T11:39:03.623Z,11.2
2019-01-04T11:40:03.354Z,11.2
2019-01-04T11:41:03.461Z,9.7
2019-01-04T11:42:03.829Z,8.6
2019-01-04T11:43:02.141Z,7.2
2019-01-04T11:44:03.993Z,8.6
2019-01-04T11:45:03.130Z,6.1
2019-01-04T11:46:03.736Z,6.1
2019-01-04T11:47:03.047Z,7.2
2019-01-04T11:48:02.843Z,7.2
2019-01-04T11:49:03.519Z,7.2
2019-01-04T11:50:03.224Z,8.6
2019-01-04T11:51:03.181Z,11.2
2019-01-04T11:52:03.915Z,11.2
2019-01-04T11:53:03.717Z,6.1
2019-01-04T11:54:03.329Z,6.1
2019-01-04T11:56:02.893Z,6.1
2019-01-04T11:57:03.583Z,7.2
2019-01-04T11:58:05.072Z,7.2
2019-01-04T11:59:02.475Z,8.6
2019-01-04T12:00:03.575Z,8.6
2019-01-04T12:01:03.414Z,9.7
2019-01-04T12:02:03.367Z,8.6
2019-01-04T12:03:04.040Z,6.1
2019-01-04T12:04:03.842Z,6.1
2019-01-04T12:05:03.189Z,8.6
2019-01-04T12:06:03.777Z,6.1
2019-01-04T12:07:03.018Z,6.1
2019-01-04T12:08:03.929Z,7.2
2019-01-04T12:09:03.452Z,9.7
2019-01-04T12:10:03.641Z,9.7
2019-01-04T12:11:03.759Z,7.2
2019-01-04T12:12:05.560Z,8.6
2019-01-04T12:13:03.770Z,8.6
2019-01-04T12:14:03.564Z,7.2
2019-01-04T12:15:03.358Z,7.2
2019-01-04T12:16:03.020Z,7.2
2019-01-04T12:17:03.804Z,9.7
2019-01-04T12:18:05.342Z,9.7
2019-01-04T12:19:03.045Z,7.2
2019-01-04T12:20:03.833Z,7.2
2019-01-04T12:22:02.338Z,7.2
2019-01-04T12:23:03.618Z,8.6
2019-01-04T12:25:02.976Z,7.2
2019-01-04T12:26:03.549Z,7.2
2019-01-04T12:27:03.300Z,7.2
2019-01-04T12:28:04.032Z,8.6
2019-01-04T12:29:03.241Z,8.6
2019-01-04T12:30:03.036Z,8.6
2019-01-04T12:31:03.807Z,8.6
2019-01-04T12:32:03.804Z,8.6
2019-01-04T12:33:04.093Z,9.7
2019-01-04T12:34:04.201Z,7.2
2019-01-04T12:35:03.319Z,7.2
2019-01-04T12:36:03.016Z,6.1
2019-01-04T12:37:03.296Z,7.2
2019-01-04T12:38:03.870Z,7.2
2019-01-04T12:39:04.025Z,7.2
2019-01-04T12:40:04.448Z,6.1
2019-01-04T12:41:03.412Z,6.1
2019-01-04T12:44:03.825Z,8.6
2019-01-04T12:45:04.582Z,8.6
2019-01-04T12:46:03.836Z,5
2019-01-04T12:47:03.120Z,7.2
2019-01-04T12:48:04.160Z,11.2
2019-01-04T12:49:03.738Z,8.6
2019-01-04T12:50:04.434Z,7.2
2019-01-04T12:51:03.074Z,6.1
2019-01-04T12:52:04.284Z,5
2019-01-04T12:53:03.225Z,5
2019-01-04T12:54:03.291Z,5
2019-01-04T12:55:03.704Z,6.1
2019-01-04T12:56:04.196Z,5
2019-01-04T12:57:03.573Z,5
2019-01-04T12:58:03.032Z,9.7
2019-01-04T12:59:04.483Z,7.2
2019-01-04T13:00:03.929Z,7.2
2019-01-04T13:01:03.107Z,7.2
2019-01-04T13:02:02.971Z,7.2
2019-01-04T13:04:03.456Z,7.2
2019-01-04T13:06:04.150Z,7.2
2019-01-04T13:07:02.785Z,7.2
2019-01-04T13:08:03.740Z,8.6
2019-01-04T13:09:03.724Z,8.6
2019-01-04T13:10:04.254Z,11.2
2019-01-04T13:11:03.092Z,7.2
2019-01-04T13:12:03.397Z,6.1
2019-01-04T13:13:03.098Z,7.2
2019-01-04T13:14:03.788Z,7.2
2019-01-04T13:15:03.732Z,8.6
2019-01-04T13:16:03.599Z,8.6
2019-01-04T13:17:03.399Z,6.1
2019-01-04T13:18:04.054Z,6.1
2019-01-04T13:19:03.842Z,6.1
2019-01-04T13:20:03.732Z,7.2
2019-01-04T13:21:03.327Z,6.1
2019-01-04T13:22:03.276Z,6.1
2019-01-04T13:23:03.690Z,7.2
2019-01-04T13:24:03.860Z,7.2
2019-01-04T13:25:03.531Z,7.2
2019-01-04T13:26:03.690Z,7.2
2019-01-04T13:27:03.150Z,7.2
2019-01-04T13:28:03.237Z,5
2019-01-04T13:29:04.221Z,5
2019-01-04T13:30:04.073Z,5
2019-01-04T13:31:03.094Z,6.1
2019-01-04T13:32:03.951Z,11.2
2019-01-04T13:33:03.509Z,6.1
2019-01-04T13:34:03.671Z,5
2019-01-04T13:35:04.342Z,5
2019-01-04T13:36:03.771Z,7.2
2019-01-04T13:37:03.968Z,6.1
2019-01-04T13:38:03.583Z,6.1
2019-01-04T13:39:04.030Z,6.1
2019-01-04T13:40:03.619Z,7.2
2019-01-04T13:41:03.047Z,5
2019-01-04T13:42:04.482Z,5
2019-01-04T13:43:03.576Z,3.6
2019-01-04T13:44:03.192Z,2.5
2019-01-04T13:45:03.275Z,6.1
2019-01-04T13:46:03.236Z,5
2019-01-04T13:47:03.347Z,5
2019-01-04T13:48:03.917Z,7.2
2019-01-04T13:49:03.145Z,6.1
2019-01-04T13:50:03.091Z,7.2
2019-01-04T13:51:06.213Z,7.2
2019-01-04T13:52:03.293Z,6.1
2019-01-04T13:53:03.137Z,5
2019-01-04T13:54:03.153Z,7.2
2019-01-04T13:55:03.740Z,7.2
2019-01-04T13:56:03.334Z,5
2019-01-04T13:57:03.401Z,3.6
2019-01-04T13:58:03.928Z,6.1
2019-01-04T13:59:03.069Z,7.2
2019-01-04T14:00:03.809Z,3.6
2019-01-04T14:01:03.538Z,3.6
2019-01-04T14:02:03.895Z,6.1
2019-01-04T14:03:03.163Z,5
2019-01-04T14:04:03.759Z,5
2019-01-04T14:05:03.392Z,5
2019-01-04T14:06:03.853Z,6.1
2019-01-04T14:07:03.167Z,6.1
2019-01-04T14:08:03.257Z,7.2
2019-01-04T14:09:03.542Z,7.2
2019-01-04T14:10:04.145Z,8.6
2019-01-04T14:11:03.905Z,7.2
2019-01-04T14:12:04.598Z,7.2
2019-01-04T14:13:09.764Z,6.1
2019-01-04T14:14:03.592Z,14.8
2019-01-04T14:16:03.491Z,9.7
2019-01-04T14:17:02.690Z,11.2
2019-01-04T14:18:03.518Z,9.7
2019-01-04T14:19:03.819Z,9.7
2019-01-04T14:20:03.489Z,9.7
2019-01-04T14:21:04.150Z,11.2